sensor_id;sensor_type;location;lat;lon;timestamp;temperature;humidity
52295;DHT22;38243;53.212;6.574;2023-04-15T00:01:25;17.50;69.60
52295;DHT22;38243;53.212;6.574;2023-04-15T00:03:52;17.50;69.80
52295;DHT22;38243;53.212;6.574;2023-04-15T00:06:19;17.50;69.70
52295;DHT22;38243;53.212;6.574;2023-04-15T00:08:45;17.50;69.70
52295;DHT22;38243;53.212;6.574;2023-04-15T00:11:11;17.50;69.80
52295;DHT22;38243;53.212;6.574;2023-04-15T00:13:37;17.50;69.90
52295;DHT22;38243;53.212;6.574;2023-04-15T00:16:05;17.50;69.80
52295;DHT22;38243;53.212;6.574;2023-04-15T00:18:31;17.40;69.80
52295;DHT22;38243;53.212;6.574;2023-04-15T00:20:57;17.40;69.90
52295;DHT22;38243;53.212;6.574;2023-04-15T00:23:24;17.40;70.00
52295;DHT22;38243;53.212;6.574;2023-04-15T00:25:49;17.40;70.00
52295;DHT22;38243;53.212;6.574;2023-04-15T00:28:16;17.40;69.90
52295;DHT22;38243;53.212;6.574;2023-04-15T00:30:42;17.40;70.00
52295;DHT22;38243;53.212;6.574;2023-04-15T00:33:08;17.40;70.00
52295;DHT22;38243;53.212;6.574;2023-04-15T00:35:35;17.40;70.00
52295;DHT22;38243;53.212;6.574;2023-04-15T00:38:05;17.30;70.00
52295;DHT22;38243;53.212;6.574;2023-04-15T00:40:31;17.30;70.10
52295;DHT22;38243;53.212;6.574;2023-04-15T00:42:57;17.30;70.10
52295;DHT22;38243;53.212;6.574;2023-04-15T00:45:23;17.30;70.20
52295;DHT22;38243;53.212;6.574;2023-04-15T00:47:50;17.30;70.30
52295;DHT22;38243;53.212;6.574;2023-04-15T00:50:15;17.30;70.20
52295;DHT22;38243;53.212;6.574;2023-04-15T00:52:41;17.30;70.30
52295;DHT22;38243;53.212;6.574;2023-04-15T00:55:08;17.30;70.30
52295;DHT22;38243;53.212;6.574;2023-04-15T00:57:34;17.30;70.30
52295;DHT22;38243;53.212;6.574;2023-04-15T01:00:01;17.30;70.30
52295;DHT22;38243;53.212;6.574;2023-04-15T01:02:27;17.30;70.30
52295;DHT22;38243;53.212;6.574;2023-04-15T01:04:53;17.30;70.40
52295;DHT22;38243;53.212;6.574;2023-04-15T01:07:19;17.30;70.40
52295;DHT22;38243;53.212;6.574;2023-04-15T01:09:45;17.30;70.40
52295;DHT22;38243;53.212;6.574;2023-04-15T01:12:14;17.30;70.40
52295;DHT22;38243;53.212;6.574;2023-04-15T01:14:41;17.20;70.40
52295;DHT22;38243;53.212;6.574;2023-04-15T01:17:06;17.20;70.40
52295;DHT22;38243;53.212;6.574;2023-04-15T01:19:34;17.30;70.40
52295;DHT22;38243;53.212;6.574;2023-04-15T01:22:02;17.20;70.40
52295;DHT22;38243;53.212;6.574;2023-04-15T01:24:29;17.20;70.50
52295;DHT22;38243;53.212;6.574;2023-04-15T01:26:56;17.20;70.50
52295;DHT22;38243;53.212;6.574;2023-04-15T01:29:22;17.20;70.50
52295;DHT22;38243;53.212;6.574;2023-04-15T01:31:53;17.20;70.60
52295;DHT22;38243;53.212;6.574;2023-04-15T01:34:19;17.20;70.50
52295;DHT22;38243;53.212;6.574;2023-04-15T01:36:45;17.20;70.50
52295;DHT22;38243;53.212;6.574;2023-04-15T01:39:11;17.20;70.60
52295;DHT22;38243;53.212;6.574;2023-04-15T01:41:37;17.20;70.50
52295;DHT22;38243;53.212;6.574;2023-04-15T01:44:04;17.20;70.50
52295;DHT22;38243;53.212;6.574;2023-04-15T01:46:31;17.10;70.40
52295;DHT22;38243;53.212;6.574;2023-04-15T01:48:57;17.20;70.50
52295;DHT22;38243;53.212;6.574;2023-04-15T01:51:23;17.10;70.60
52295;DHT22;38243;53.212;6.574;2023-04-15T01:53:48;17.10;70.50
52295;DHT22;38243;53.212;6.574;2023-04-15T01:56:14;17.10;70.60
52295;DHT22;38243;53.212;6.574;2023-04-15T01:58:40;17.10;70.60
52295;DHT22;38243;53.212;6.574;2023-04-15T02:01:06;17.10;70.60
52295;DHT22;38243;53.212;6.574;2023-04-15T02:03:32;17.10;70.70
52295;DHT22;38243;53.212;6.574;2023-04-15T02:05:58;17.10;70.70
52295;DHT22;38243;53.212;6.574;2023-04-15T02:08:23;17.10;70.70
52295;DHT22;38243;53.212;6.574;2023-04-15T02:10:49;17.10;70.80
52295;DHT22;38243;53.212;6.574;2023-04-15T02:13:15;17.10;70.70
52295;DHT22;38243;53.212;6.574;2023-04-15T02:15:49;17.10;70.80
52295;DHT22;38243;53.212;6.574;2023-04-15T02:18:16;17.10;70.80
52295;DHT22;38243;53.212;6.574;2023-04-15T02:20:42;17.10;70.80
52295;DHT22;38243;53.212;6.574;2023-04-15T02:23:11;17.10;70.90
52295;DHT22;38243;53.212;6.574;2023-04-15T02:25:37;17.10;70.90
52295;DHT22;38243;53.212;6.574;2023-04-15T02:28:04;17.10;70.90
52295;DHT22;38243;53.212;6.574;2023-04-15T02:30:33;17.10;70.90
52295;DHT22;38243;53.212;6.574;2023-04-15T02:33:00;17.00;70.90
52295;DHT22;38243;53.212;6.574;2023-04-15T02:35:26;17.00;70.90
52295;DHT22;38243;53.212;6.574;2023-04-15T02:37:52;17.00;70.90
52295;DHT22;38243;53.212;6.574;2023-04-15T02:40:18;17.00;70.90
52295;DHT22;38243;53.212;6.574;2023-04-15T02:42:44;17.00;71.00
52295;DHT22;38243;53.212;6.574;2023-04-15T02:45:10;17.00;71.00
52295;DHT22;38243;53.212;6.574;2023-04-15T02:47:37;17.00;71.00
52295;DHT22;38243;53.212;6.574;2023-04-15T02:50:10;17.00;71.00
52295;DHT22;38243;53.212;6.574;2023-04-15T02:52:39;17.00;71.00
52295;DHT22;38243;53.212;6.574;2023-04-15T02:55:06;17.00;71.00
52295;DHT22;38243;53.212;6.574;2023-04-15T02:57:32;17.00;71.10
52295;DHT22;38243;53.212;6.574;2023-04-15T02:59:59;17.00;71.10
52295;DHT22;38243;53.212;6.574;2023-04-15T03:02:25;17.00;71.20
52295;DHT22;38243;53.212;6.574;2023-04-15T03:04:51;16.90;71.10
52295;DHT22;38243;53.212;6.574;2023-04-15T03:07:17;16.90;71.20
52295;DHT22;38243;53.212;6.574;2023-04-15T03:09:43;16.90;71.20
52295;DHT22;38243;53.212;6.574;2023-04-15T03:12:09;16.90;71.30
52295;DHT22;38243;53.212;6.574;2023-04-15T03:14:35;16.90;71.40
52295;DHT22;38243;53.212;6.574;2023-04-15T03:17:01;16.90;71.40
52295;DHT22;38243;53.212;6.574;2023-04-15T03:19:26;16.80;71.40
52295;DHT22;38243;53.212;6.574;2023-04-15T03:21:52;16.90;71.50
52295;DHT22;38243;53.212;6.574;2023-04-15T03:24:19;16.90;71.50
52295;DHT22;38243;53.212;6.574;2023-04-15T03:26:45;16.90;71.50
52295;DHT22;38243;53.212;6.574;2023-04-15T03:29:11;16.80;71.50
52295;DHT22;38243;53.212;6.574;2023-04-15T03:31:37;16.80;71.50
52295;DHT22;38243;53.212;6.574;2023-04-15T03:34:02;16.80;71.50
52295;DHT22;38243;53.212;6.574;2023-04-15T03:36:29;16.80;71.60
52295;DHT22;38243;53.212;6.574;2023-04-15T03:38:57;16.80;71.70
52295;DHT22;38243;53.212;6.574;2023-04-15T03:41:23;16.90;71.70
52295;DHT22;38243;53.212;6.574;2023-04-15T03:43:49;16.80;71.70
52295;DHT22;38243;53.212;6.574;2023-04-15T03:46:17;16.80;72.00
52295;DHT22;38243;53.212;6.574;2023-04-15T03:48:43;16.80;72.10
52295;DHT22;38243;53.212;6.574;2023-04-15T03:51:09;16.80;72.10
52295;DHT22;38243;53.212;6.574;2023-04-15T03:53:34;16.80;72.10
52295;DHT22;38243;53.212;6.574;2023-04-15T03:56:01;16.80;72.10
52295;DHT22;38243;53.212;6.574;2023-04-15T03:58:26;16.80;72.10
52295;DHT22;38243;53.212;6.574;2023-04-15T04:00:52;16.70;72.10
52295;DHT22;38243;53.212;6.574;2023-04-15T04:03:19;16.80;72.30
52295;DHT22;38243;53.212;6.574;2023-04-15T04:05:45;16.70;72.30
52295;DHT22;38243;53.212;6.574;2023-04-15T04:08:11;16.70;72.30
52295;DHT22;38243;53.212;6.574;2023-04-15T04:10:38;16.80;72.60
52295;DHT22;38243;53.212;6.574;2023-04-15T04:13:04;16.80;72.50
52295;DHT22;38243;53.212;6.574;2023-04-15T04:15:30;16.70;72.40
52295;DHT22;38243;53.212;6.574;2023-04-15T04:17:56;16.70;72.50
52295;DHT22;38243;53.212;6.574;2023-04-15T04:20:22;16.70;72.50
52295;DHT22;38243;53.212;6.574;2023-04-15T04:22:47;16.70;72.40
52295;DHT22;38243;53.212;6.574;2023-04-15T04:25:13;16.70;72.60
52295;DHT22;38243;53.212;6.574;2023-04-15T04:27:39;16.70;72.70
52295;DHT22;38243;53.212;6.574;2023-04-15T04:30:05;16.70;72.70
52295;DHT22;38243;53.212;6.574;2023-04-15T04:32:31;16.70;72.60
52295;DHT22;38243;53.212;6.574;2023-04-15T04:34:57;16.70;72.50
52295;DHT22;38243;53.212;6.574;2023-04-15T04:37:23;16.70;72.70
52295;DHT22;38243;53.212;6.574;2023-04-15T04:39:49;16.70;72.80
52295;DHT22;38243;53.212;6.574;2023-04-15T04:42:14;16.70;72.70
52295;DHT22;38243;53.212;6.574;2023-04-15T04:44:40;16.70;72.80
52295;DHT22;38243;53.212;6.574;2023-04-15T04:47:06;16.70;72.80
52295;DHT22;38243;53.212;6.574;2023-04-15T04:49:32;16.60;72.80
52295;DHT22;38243;53.212;6.574;2023-04-15T04:51:58;16.70;72.80
52295;DHT22;38243;53.212;6.574;2023-04-15T04:54:24;16.70;72.80
52295;DHT22;38243;53.212;6.574;2023-04-15T04:56:50;16.70;72.60
52295;DHT22;38243;53.212;6.574;2023-04-15T04:59:16;16.70;72.70
52295;DHT22;38243;53.212;6.574;2023-04-15T05:01:42;16.70;72.60
52295;DHT22;38243;53.212;6.574;2023-04-15T05:04:08;16.60;72.60
52295;DHT22;38243;53.212;6.574;2023-04-15T05:06:33;16.60;72.50
52295;DHT22;38243;53.212;6.574;2023-04-15T05:09:01;16.60;72.50
52295;DHT22;38243;53.212;6.574;2023-04-15T05:11:28;16.60;72.70
52295;DHT22;38243;53.212;6.574;2023-04-15T05:13:53;16.60;72.70
52295;DHT22;38243;53.212;6.574;2023-04-15T05:16:19;16.60;72.80
52295;DHT22;38243;53.212;6.574;2023-04-15T05:18:45;16.60;72.80
52295;DHT22;38243;53.212;6.574;2023-04-15T05:21:11;16.60;72.70
52295;DHT22;38243;53.212;6.574;2023-04-15T05:23:36;16.90;72.80
52295;DHT22;38243;53.212;6.574;2023-04-15T05:26:03;16.60;72.70
52295;DHT22;38243;53.212;6.574;2023-04-15T05:28:28;16.60;72.80
52295;DHT22;38243;53.212;6.574;2023-04-15T05:30:54;16.60;72.90
52295;DHT22;38243;53.212;6.574;2023-04-15T05:33:20;16.60;72.90
52295;DHT22;38243;53.212;6.574;2023-04-15T05:35:46;16.60;73.00
52295;DHT22;38243;53.212;6.574;2023-04-15T05:38:12;16.60;72.90
52295;DHT22;38243;53.212;6.574;2023-04-15T05:40:37;16.60;73.00
52295;DHT22;38243;53.212;6.574;2023-04-15T05:43:03;16.70;73.10
52295;DHT22;38243;53.212;6.574;2023-04-15T05:45:29;16.70;73.10
52295;DHT22;38243;53.212;6.574;2023-04-15T05:47:55;16.70;73.10
52295;DHT22;38243;53.212;6.574;2023-04-15T05:50:21;16.60;73.00
52295;DHT22;38243;53.212;6.574;2023-04-15T05:52:46;16.60;73.00
52295;DHT22;38243;53.212;6.574;2023-04-15T05:55:12;16.70;73.10
52295;DHT22;38243;53.212;6.574;2023-04-15T05:57:38;16.70;73.10
52295;DHT22;38243;53.212;6.574;2023-04-15T06:00:05;16.70;73.10
52295;DHT22;38243;53.212;6.574;2023-04-15T06:02:31;16.70;73.10
52295;DHT22;38243;53.212;6.574;2023-04-15T06:04:57;16.70;73.00
52295;DHT22;38243;53.212;6.574;2023-04-15T06:07:23;16.80;73.10
52295;DHT22;38243;53.212;6.574;2023-04-15T06:09:48;16.80;73.10
52295;DHT22;38243;53.212;6.574;2023-04-15T06:12:14;16.70;73.10
52295;DHT22;38243;53.212;6.574;2023-04-15T06:14:41;16.80;73.20
52295;DHT22;38243;53.212;6.574;2023-04-15T06:17:09;16.80;73.10
52295;DHT22;38243;53.212;6.574;2023-04-15T06:19:34;16.80;73.00
52295;DHT22;38243;53.212;6.574;2023-04-15T06:22:03;16.80;73.10
52295;DHT22;38243;53.212;6.574;2023-04-15T06:24:31;16.80;73.10
52295;DHT22;38243;53.212;6.574;2023-04-15T06:26:57;16.80;73.10
52295;DHT22;38243;53.212;6.574;2023-04-15T06:29:23;16.90;73.20
52295;DHT22;38243;53.212;6.574;2023-04-15T06:31:49;16.90;73.20
52295;DHT22;38243;53.212;6.574;2023-04-15T06:34:14;16.90;73.20
52295;DHT22;38243;53.212;6.574;2023-04-15T06:36:40;17.00;73.20
52295;DHT22;38243;53.212;6.574;2023-04-15T06:39:06;17.00;73.20
52295;DHT22;38243;53.212;6.574;2023-04-15T06:41:32;17.00;73.10
52295;DHT22;38243;53.212;6.574;2023-04-15T06:43:58;17.00;73.00
52295;DHT22;38243;53.212;6.574;2023-04-15T06:46:24;17.00;73.00
52295;DHT22;38243;53.212;6.574;2023-04-15T06:48:50;17.10;73.00
52295;DHT22;38243;53.212;6.574;2023-04-15T06:51:16;17.10;72.90
52295;DHT22;38243;53.212;6.574;2023-04-15T06:53:42;17.10;72.90
52295;DHT22;38243;53.212;6.574;2023-04-15T06:56:08;17.10;72.90
52295;DHT22;38243;53.212;6.574;2023-04-15T06:58:34;17.20;72.80
52295;DHT22;38243;53.212;6.574;2023-04-15T07:01:00;17.20;72.80
52295;DHT22;38243;53.212;6.574;2023-04-15T07:03:26;17.20;72.80
52295;DHT22;38243;53.212;6.574;2023-04-15T07:05:52;17.20;72.80
52295;DHT22;38243;53.212;6.574;2023-04-15T07:08:18;17.20;72.80
52295;DHT22;38243;53.212;6.574;2023-04-15T07:10:45;17.20;72.70
52295;DHT22;38243;53.212;6.574;2023-04-15T07:13:11;17.20;72.70
52295;DHT22;38243;53.212;6.574;2023-04-15T07:15:38;17.20;72.60
52295;DHT22;38243;53.212;6.574;2023-04-15T07:18:04;17.30;72.60
52295;DHT22;38243;53.212;6.574;2023-04-15T07:20:29;17.20;72.50
52295;DHT22;38243;53.212;6.574;2023-04-15T07:22:55;17.30;72.70
52295;DHT22;38243;53.212;6.574;2023-04-15T07:25:22;17.30;72.60
52295;DHT22;38243;53.212;6.574;2023-04-15T07:27:47;17.30;72.60
52295;DHT22;38243;53.212;6.574;2023-04-15T07:30:13;17.30;72.50
52295;DHT22;38243;53.212;6.574;2023-04-15T07:32:39;17.30;72.50
52295;DHT22;38243;53.212;6.574;2023-04-15T07:35:05;17.30;72.50
52295;DHT22;38243;53.212;6.574;2023-04-15T07:37:32;17.30;73.00
52295;DHT22;38243;53.212;6.574;2023-04-15T07:39:58;17.30;72.90
52295;DHT22;38243;53.212;6.574;2023-04-15T07:42:23;17.30;72.80
52295;DHT22;38243;53.212;6.574;2023-04-15T07:44:50;17.40;72.70
52295;DHT22;38243;53.212;6.574;2023-04-15T07:47:16;17.30;72.60
52295;DHT22;38243;53.212;6.574;2023-04-15T07:49:42;17.30;72.60
52295;DHT22;38243;53.212;6.574;2023-04-15T07:52:08;17.30;72.70
52295;DHT22;38243;53.212;6.574;2023-04-15T07:54:34;17.30;72.60
52295;DHT22;38243;53.212;6.574;2023-04-15T07:57:00;17.30;72.50
52295;DHT22;38243;53.212;6.574;2023-04-15T07:59:26;17.40;72.50
52295;DHT22;38243;53.212;6.574;2023-04-15T08:01:54;17.40;72.40
52295;DHT22;38243;53.212;6.574;2023-04-15T08:04:20;17.40;72.40
52295;DHT22;38243;53.212;6.574;2023-04-15T08:06:45;17.40;72.40
52295;DHT22;38243;53.212;6.574;2023-04-15T08:09:12;17.40;72.30
52295;DHT22;38243;53.212;6.574;2023-04-15T08:11:38;17.40;72.30
52295;DHT22;38243;53.212;6.574;2023-04-15T08:14:04;17.40;72.30
52295;DHT22;38243;53.212;6.574;2023-04-15T08:16:30;17.40;72.30
52295;DHT22;38243;53.212;6.574;2023-04-15T08:18:56;17.40;72.30
52295;DHT22;38243;53.212;6.574;2023-04-15T08:21:22;17.40;72.50
52295;DHT22;38243;53.212;6.574;2023-04-15T08:23:50;17.40;72.70
52295;DHT22;38243;53.212;6.574;2023-04-15T08:26:16;17.40;72.80
52295;DHT22;38243;53.212;6.574;2023-04-15T08:28:44;17.40;72.90
52295;DHT22;38243;53.212;6.574;2023-04-15T08:31:10;17.40;73.00
52295;DHT22;38243;53.212;6.574;2023-04-15T08:33:36;17.40;72.90
52295;DHT22;38243;53.212;6.574;2023-04-15T08:36:02;17.40;72.90
52295;DHT22;38243;53.212;6.574;2023-04-15T08:38:28;17.40;72.90
52295;DHT22;38243;53.212;6.574;2023-04-15T08:40:54;17.40;72.80
52295;DHT22;38243;53.212;6.574;2023-04-15T08:43:23;17.40;72.80
52295;DHT22;38243;53.212;6.574;2023-04-15T08:45:53;17.40;72.80
52295;DHT22;38243;53.212;6.574;2023-04-15T08:48:19;17.40;72.70
52295;DHT22;38243;53.212;6.574;2023-04-15T08:50:46;17.40;72.70
52295;DHT22;38243;53.212;6.574;2023-04-15T08:53:14;17.40;72.70
52295;DHT22;38243;53.212;6.574;2023-04-15T08:55:45;17.40;72.60
52295;DHT22;38243;53.212;6.574;2023-04-15T08:58:12;17.40;72.60
52295;DHT22;38243;53.212;6.574;2023-04-15T09:00:39;17.40;72.60
52295;DHT22;38243;53.212;6.574;2023-04-15T09:03:05;17.40;72.60
52295;DHT22;38243;53.212;6.574;2023-04-15T09:05:32;17.40;72.80
52295;DHT22;38243;53.212;6.574;2023-04-15T09:07:58;17.40;73.70
52295;DHT22;38243;53.212;6.574;2023-04-15T09:10:24;17.40;73.00
52295;DHT22;38243;53.212;6.574;2023-04-15T09:12:50;17.40;73.10
52295;DHT22;38243;53.212;6.574;2023-04-15T09:15:16;17.40;73.20
52295;DHT22;38243;53.212;6.574;2023-04-15T09:17:43;17.40;73.20
52295;DHT22;38243;53.212;6.574;2023-04-15T09:20:10;17.40;73.30
52295;DHT22;38243;53.212;6.574;2023-04-15T09:22:38;17.40;73.40
52295;DHT22;38243;53.212;6.574;2023-04-15T09:25:25;17.40;74.20
52295;DHT22;38243;53.212;6.574;2023-04-15T09:27:54;17.40;73.80
52295;DHT22;38243;53.212;6.574;2023-04-15T09:30:21;17.40;73.80
52295;DHT22;38243;53.212;6.574;2023-04-15T09:32:49;17.40;73.70
52295;DHT22;38243;53.212;6.574;2023-04-15T09:35:16;17.50;73.80
52295;DHT22;38243;53.212;6.574;2023-04-15T09:37:42;17.40;73.90
52295;DHT22;38243;53.212;6.574;2023-04-15T09:40:07;17.50;73.90
52295;DHT22;38243;53.212;6.574;2023-04-15T09:42:35;17.50;73.90
52295;DHT22;38243;53.212;6.574;2023-04-15T09:45:11;17.50;73.80
52295;DHT22;38243;53.212;6.574;2023-04-15T09:47:37;17.50;73.70
52295;DHT22;38243;53.212;6.574;2023-04-15T09:50:03;17.50;73.60
52295;DHT22;38243;53.212;6.574;2023-04-15T09:52:29;17.50;73.70
52295;DHT22;38243;53.212;6.574;2023-04-15T09:54:59;17.60;73.60
52295;DHT22;38243;53.212;6.574;2023-04-15T09:57:33;17.60;73.50
52295;DHT22;38243;53.212;6.574;2023-04-15T09:59:59;17.30;73.10
52295;DHT22;38243;53.212;6.574;2023-04-15T10:02:26;17.60;73.20
52295;DHT22;38243;53.212;6.574;2023-04-15T10:04:53;17.60;73.10
52295;DHT22;38243;53.212;6.574;2023-04-15T10:07:20;17.60;73.00
52295;DHT22;38243;53.212;6.574;2023-04-15T10:09:49;17.60;72.90
52295;DHT22;38243;53.212;6.574;2023-04-15T10:12:18;17.60;72.80
52295;DHT22;38243;53.212;6.574;2023-04-15T10:14:49;17.60;72.60
52295;DHT22;38243;53.212;6.574;2023-04-15T10:17:17;17.60;72.50
52295;DHT22;38243;53.212;6.574;2023-04-15T10:19:46;17.60;72.40
52295;DHT22;38243;53.212;6.574;2023-04-15T10:22:13;17.60;72.40
52295;DHT22;38243;53.212;6.574;2023-04-15T10:24:39;17.60;72.30
52295;DHT22;38243;53.212;6.574;2023-04-15T10:27:06;17.60;72.20
52295;DHT22;38243;53.212;6.574;2023-04-15T10:29:32;17.60;72.20
52295;DHT22;38243;53.212;6.574;2023-04-15T10:31:59;17.60;72.10
52295;DHT22;38243;53.212;6.574;2023-04-15T10:34:26;17.60;72.10
52295;DHT22;38243;53.212;6.574;2023-04-15T10:36:56;17.60;72.00
52295;DHT22;38243;53.212;6.574;2023-04-15T10:39:39;17.60;72.00
52295;DHT22;38243;53.212;6.574;2023-04-15T10:42:09;17.60;72.00
52295;DHT22;38243;53.212;6.574;2023-04-15T10:44:37;17.60;72.00
52295;DHT22;38243;53.212;6.574;2023-04-15T10:47:14;17.60;71.90
52295;DHT22;38243;53.212;6.574;2023-04-15T10:52:10;17.60;71.90
52295;DHT22;38243;53.212;6.574;2023-04-15T10:54:37;17.60;71.90
52295;DHT22;38243;53.212;6.574;2023-04-15T10:59:58;17.60;71.90
52295;DHT22;38243;53.212;6.574;2023-04-15T11:03:05;17.60;71.90
52295;DHT22;38243;53.212;6.574;2023-04-15T11:08:08;17.60;71.90
52295;DHT22;38243;53.212;6.574;2023-04-15T11:13:13;17.60;71.90
52295;DHT22;38243;53.212;6.574;2023-04-15T11:15:44;17.60;71.80
52295;DHT22;38243;53.212;6.574;2023-04-15T11:18:24;17.60;71.80
52295;DHT22;38243;53.212;6.574;2023-04-15T11:20:55;17.60;71.80
52295;DHT22;38243;53.212;6.574;2023-04-15T11:23:53;17.60;71.70
52295;DHT22;38243;53.212;6.574;2023-04-15T11:26:25;17.60;71.70
52295;DHT22;38243;53.212;6.574;2023-04-15T11:28:51;17.60;71.70
52295;DHT22;38243;53.212;6.574;2023-04-15T11:31:17;17.70;71.80
52295;DHT22;38243;53.212;6.574;2023-04-15T11:33:52;17.60;71.70
52295;DHT22;38243;53.212;6.574;2023-04-15T11:36:18;17.60;71.70
52295;DHT22;38243;53.212;6.574;2023-04-15T11:38:46;17.60;71.60
52295;DHT22;38243;53.212;6.574;2023-04-15T11:41:12;17.70;71.60
52295;DHT22;38243;53.212;6.574;2023-04-15T11:43:38;17.70;71.80
52295;DHT22;38243;53.212;6.574;2023-04-15T11:46:04;17.70;71.60
52295;DHT22;38243;53.212;6.574;2023-04-15T11:48:32;17.70;71.60
52295;DHT22;38243;53.212;6.574;2023-04-15T11:51:04;17.70;71.50
52295;DHT22;38243;53.212;6.574;2023-04-15T11:53:56;17.70;71.40
52295;DHT22;38243;53.212;6.574;2023-04-15T11:56:23;17.70;71.30
52295;DHT22;38243;53.212;6.574;2023-04-15T11:58:58;17.70;71.40
52295;DHT22;38243;53.212;6.574;2023-04-15T12:01:37;17.70;71.30
52295;DHT22;38243;53.212;6.574;2023-04-15T12:04:15;17.70;71.40
52295;DHT22;38243;53.212;6.574;2023-04-15T12:06:42;17.70;71.30
52295;DHT22;38243;53.212;6.574;2023-04-15T12:09:17;17.70;71.30
52295;DHT22;38243;53.212;6.574;2023-04-15T12:11:48;17.70;71.20
52295;DHT22;38243;53.212;6.574;2023-04-15T12:14:28;17.80;71.20
52295;DHT22;38243;53.212;6.574;2023-04-15T12:17:00;17.80;71.20
52295;DHT22;38243;53.212;6.574;2023-04-15T12:19:28;17.80;71.10
52295;DHT22;38243;53.212;6.574;2023-04-15T12:22:04;17.80;71.10
52295;DHT22;38243;53.212;6.574;2023-04-15T12:24:33;17.80;71.10
52295;DHT22;38243;53.212;6.574;2023-04-15T12:27:10;17.80;71.10
52295;DHT22;38243;53.212;6.574;2023-04-15T12:29:38;17.80;71.70
52295;DHT22;38243;53.212;6.574;2023-04-15T12:34:37;17.80;71.10
52295;DHT22;38243;53.212;6.574;2023-04-15T12:37:06;17.80;71.20
52295;DHT22;38243;53.212;6.574;2023-04-15T12:39:36;17.80;71.10
52295;DHT22;38243;53.212;6.574;2023-04-15T12:42:03;17.80;71.20
52295;DHT22;38243;53.212;6.574;2023-04-15T12:44:30;17.80;71.20
52295;DHT22;38243;53.212;6.574;2023-04-15T12:46:56;17.80;71.20
52295;DHT22;38243;53.212;6.574;2023-04-15T12:49:23;17.80;71.20
52295;DHT22;38243;53.212;6.574;2023-04-15T12:51:50;17.80;71.10
52295;DHT22;38243;53.212;6.574;2023-04-15T12:54:16;17.80;71.10
52295;DHT22;38243;53.212;6.574;2023-04-15T12:56:46;17.80;71.20
52295;DHT22;38243;53.212;6.574;2023-04-15T12:59:13;17.80;71.20
52295;DHT22;38243;53.212;6.574;2023-04-15T13:01:39;17.80;71.20
52295;DHT22;38243;53.212;6.574;2023-04-15T13:04:06;17.90;71.20
52295;DHT22;38243;53.212;6.574;2023-04-15T13:06:31;17.80;71.20
52295;DHT22;38243;53.212;6.574;2023-04-15T13:09:02;17.80;71.20
52295;DHT22;38243;53.212;6.574;2023-04-15T13:11:28;17.80;71.20
52295;DHT22;38243;53.212;6.574;2023-04-15T13:13:59;17.90;71.30
52295;DHT22;38243;53.212;6.574;2023-04-15T13:16:26;17.80;71.30
52295;DHT22;38243;53.212;6.574;2023-04-15T13:18:52;17.90;71.40
52295;DHT22;38243;53.212;6.574;2023-04-15T13:21:18;17.90;71.40
52295;DHT22;38243;53.212;6.574;2023-04-15T13:23:44;17.90;71.40
52295;DHT22;38243;53.212;6.574;2023-04-15T13:26:10;17.90;71.40
52295;DHT22;38243;53.212;6.574;2023-04-15T13:28:35;17.80;71.40
52295;DHT22;38243;53.212;6.574;2023-04-15T13:31:01;17.90;71.50
52295;DHT22;38243;53.212;6.574;2023-04-15T13:33:27;17.80;71.50
52295;DHT22;38243;53.212;6.574;2023-04-15T13:35:53;17.80;71.50
52295;DHT22;38243;53.212;6.574;2023-04-15T13:38:19;17.90;71.80
52295;DHT22;38243;53.212;6.574;2023-04-15T13:40:44;17.80;72.20
52295;DHT22;38243;53.212;6.574;2023-04-15T13:43:10;17.80;72.30
52295;DHT22;38243;53.212;6.574;2023-04-15T13:45:36;17.80;72.50
52295;DHT22;38243;53.212;6.574;2023-04-15T13:48:02;17.90;72.40
52295;DHT22;38243;53.212;6.574;2023-04-15T13:50:28;17.80;72.40
52295;DHT22;38243;53.212;6.574;2023-04-15T13:52:54;17.80;72.40
52295;DHT22;38243;53.212;6.574;2023-04-15T13:55:19;17.80;72.50
52295;DHT22;38243;53.212;6.574;2023-04-15T13:57:45;17.80;72.40
52295;DHT22;38243;53.212;6.574;2023-04-15T14:00:11;17.80;72.40
52295;DHT22;38243;53.212;6.574;2023-04-15T14:02:39;17.80;72.40
52295;DHT22;38243;53.212;6.574;2023-04-15T14:05:05;17.80;72.40
52295;DHT22;38243;53.212;6.574;2023-04-15T14:07:30;17.80;72.40
52295;DHT22;38243;53.212;6.574;2023-04-15T14:09:56;17.80;72.40
52295;DHT22;38243;53.212;6.574;2023-04-15T14:12:22;17.80;72.50
52295;DHT22;38243;53.212;6.574;2023-04-15T14:14:48;17.70;72.40
52295;DHT22;38243;53.212;6.574;2023-04-15T14:17:13;17.80;72.50
52295;DHT22;38243;53.212;6.574;2023-04-15T14:19:39;17.70;72.50
52295;DHT22;38243;53.212;6.574;2023-04-15T14:22:05;17.70;72.50
52295;DHT22;38243;53.212;6.574;2023-04-15T14:24:31;17.70;72.50
52295;DHT22;38243;53.212;6.574;2023-04-15T14:26:57;17.70;72.50
52295;DHT22;38243;53.212;6.574;2023-04-15T14:29:23;17.70;72.40
52295;DHT22;38243;53.212;6.574;2023-04-15T14:31:49;17.70;72.40
52295;DHT22;38243;53.212;6.574;2023-04-15T14:34:16;17.70;72.40
52295;DHT22;38243;53.212;6.574;2023-04-15T14:36:42;17.70;72.40
52295;DHT22;38243;53.212;6.574;2023-04-15T14:39:08;17.70;72.40
52295;DHT22;38243;53.212;6.574;2023-04-15T14:41:34;17.70;72.50
52295;DHT22;38243;53.212;6.574;2023-04-15T14:44:00;17.70;72.40
52295;DHT22;38243;53.212;6.574;2023-04-15T14:46:25;17.70;72.50
52295;DHT22;38243;53.212;6.574;2023-04-15T14:48:51;17.70;72.50
52295;DHT22;38243;53.212;6.574;2023-04-15T14:51:17;17.70;72.60
52295;DHT22;38243;53.212;6.574;2023-04-15T14:53:44;17.70;72.60
52295;DHT22;38243;53.212;6.574;2023-04-15T14:56:10;17.70;72.60
52295;DHT22;38243;53.212;6.574;2023-04-15T14:58:36;17.70;72.60
52295;DHT22;38243;53.212;6.574;2023-04-15T15:01:02;17.70;73.20
52295;DHT22;38243;53.212;6.574;2023-04-15T15:03:29;17.70;72.60
52295;DHT22;38243;53.212;6.574;2023-04-15T15:05:55;17.70;72.60
52295;DHT22;38243;53.212;6.574;2023-04-15T15:08:22;17.70;72.70
52295;DHT22;38243;53.212;6.574;2023-04-15T15:10:48;17.70;72.70
52295;DHT22;38243;53.212;6.574;2023-04-15T15:13:13;17.70;72.70
52295;DHT22;38243;53.212;6.574;2023-04-15T15:15:39;17.70;72.80
52295;DHT22;38243;53.212;6.574;2023-04-15T15:18:05;17.70;72.80
52295;DHT22;38243;53.212;6.574;2023-04-15T15:20:31;17.70;72.80
52295;DHT22;38243;53.212;6.574;2023-04-15T15:22:57;17.70;72.80
52295;DHT22;38243;53.212;6.574;2023-04-15T15:25:23;17.70;72.80
52295;DHT22;38243;53.212;6.574;2023-04-15T15:27:49;17.70;72.80
52295;DHT22;38243;53.212;6.574;2023-04-15T15:30:15;17.70;72.90
52295;DHT22;38243;53.212;6.574;2023-04-15T15:32:41;17.70;73.00
52295;DHT22;38243;53.212;6.574;2023-04-15T15:35:08;17.70;73.00
52295;DHT22;38243;53.212;6.574;2023-04-15T15:37:35;17.70;73.00
52295;DHT22;38243;53.212;6.574;2023-04-15T15:40:03;17.70;73.10
52295;DHT22;38243;53.212;6.574;2023-04-15T15:42:30;17.70;73.10